createdAt,value
2019-01-26T00:03:13.833Z,97268.00
2019-01-26T00:08:22.031Z,97263.00
2019-01-26T00:13:29.155Z,97244.00
2019-01-26T00:18:35.646Z,97235.00
2019-01-26T00:23:41.182Z,97228.00
2019-01-26T00:28:48.298Z,97201.00
2019-01-26T00:33:54.762Z,97194.00
2019-01-26T00:39:01.133Z,97167.00
2019-01-26T00:44:09.040Z,97162.00
2019-01-26T00:49:15.687Z,97158.00
2019-01-26T00:54:22.377Z,97131.00
2019-01-26T00:59:28.878Z,97121.00
2019-01-26T01:04:34.796Z,97097.00
2019-01-26T01:09:40.906Z,97090.00
2019-01-26T01:14:46.398Z,97099.00
2019-01-26T01:19:52.933Z,97091.00
2019-01-26T01:25:00.191Z,97089.00
2019-01-26T01:30:23.053Z,97076.00
2019-01-26T01:35:29.526Z,97081.00
2019-01-26T01:40:36.002Z,97083.00
2019-01-26T01:45:43.106Z,97065.00
2019-01-26T01:50:48.587Z,97058.00
2019-01-26T01:55:54.182Z,97053.00
2019-01-26T02:01:00.375Z,97059.00
2019-01-26T02:06:06.859Z,97042.00
2019-01-26T02:11:14.882Z,97021.00
2019-01-26T02:16:21.354Z,97021.00
2019-01-26T02:21:27.708Z,97032.00
2019-01-26T02:26:35.434Z,97026.00
2019-01-26T02:31:41.031Z,97018.00
2019-01-26T02:36:46.647Z,97005.00
2019-01-26T02:41:52.900Z,97006.00
2019-01-26T02:46:59.381Z,96993.00
2019-01-26T02:52:06.960Z,96980.00
2019-01-26T02:57:13.120Z,96977.00
2019-01-26T03:02:19.315Z,96980.00
2019-01-26T03:07:48.352Z,96962.00
2019-01-26T03:12:54.887Z,96955.00
2019-01-26T03:18:01.389Z,96938.00
2019-01-26T03:23:07.784Z,96949.00
2019-01-26T03:28:13.805Z,96934.00
2019-01-26T03:33:19.972Z,96935.00
2019-01-26T03:38:25.996Z,96917.00
2019-01-26T03:43:33.997Z,96905.00
2019-01-26T03:48:40.412Z,96923.00
2019-01-26T03:53:48.448Z,96902.00
2019-01-26T03:58:54.996Z,96914.00
2019-01-26T04:04:01.520Z,96906.00
2019-01-26T04:09:09.198Z,96900.00
2019-01-26T04:14:15.691Z,96900.00
2019-01-26T04:19:22.160Z,96902.00
2019-01-26T04:24:28.729Z,96895.00
2019-01-26T04:29:34.964Z,96899.00
2019-01-26T04:34:40.418Z,96912.00
2019-01-26T04:39:45.825Z,96890.00
2019-01-26T04:44:51.308Z,96894.00
2019-01-26T04:49:57.493Z,96886.00
2019-01-26T04:55:03.769Z,96890.00
2019-01-26T05:00:17.268Z,96890.00
2019-01-26T05:05:23.664Z,96888.00
2019-01-26T05:10:31.109Z,96896.00
2019-01-26T05:15:39.751Z,96890.00
2019-01-26T05:20:46.344Z,96889.00
2019-01-26T05:25:52.018Z,96893.00
2019-01-26T05:30:59.191Z,96899.00
2019-01-26T05:36:06.802Z,96891.00
2019-01-26T05:41:12.903Z,96898.00
2019-01-26T05:46:32.001Z,96905.00
2019-01-26T05:51:38.723Z,96904.00
2019-01-26T05:56:44.322Z,96898.00
2019-01-26T06:01:50.446Z,96911.00
2019-01-26T06:06:57.429Z,96912.00
2019-01-26T06:12:04.676Z,96904.00
2019-01-26T06:17:10.726Z,96888.00
2019-01-26T06:22:16.877Z,96888.00
2019-01-26T06:27:23.795Z,96879.00
2019-01-26T06:32:30.082Z,96890.00
2019-01-26T06:37:36.660Z,96893.00
2019-01-26T06:42:42.309Z,96887.00
2019-01-26T06:48:10.202Z,96879.00
2019-01-26T06:53:16.889Z,96888.00
2019-01-26T06:58:23.132Z,96892.00
2019-01-26T07:03:29.159Z,96899.00
2019-01-26T07:08:35.344Z,96894.00
2019-01-26T07:13:40.854Z,96903.00
2019-01-26T07:18:46.317Z,96891.00
2019-01-26T07:23:52.744Z,96903.00
2019-01-26T07:28:59.278Z,96884.00
2019-01-26T07:34:05.871Z,96900.00
2019-01-26T07:39:12.578Z,96902.00
2019-01-26T07:44:19.157Z,96899.00
2019-01-26T07:49:25.801Z,96906.00
2019-01-26T07:54:32.349Z,96894.00
2019-01-26T07:59:39.153Z,96891.00
2019-01-26T08:04:44.803Z,96897.00
2019-01-26T08:09:51.602Z,96888.00
2019-01-26T08:14:57.931Z,96878.00
2019-01-26T08:20:09.498Z,96878.00
2019-01-26T08:25:15.668Z,96886.00
2019-01-26T08:30:24.588Z,96876.00
2019-01-26T08:35:33.092Z,96863.00
2019-01-26T08:40:39.585Z,96863.00
2019-01-26T08:45:47.283Z,96871.00
2019-01-26T08:50:53.816Z,96863.00
2019-01-26T08:56:11.912Z,96861.00
2019-01-26T09:01:18.473Z,96852.00
2019-01-26T09:06:26.169Z,96853.00
2019-01-26T09:11:32.424Z,96849.00
2019-01-26T09:16:38.923Z,96848.00
2019-01-26T09:21:44.306Z,96843.00
2019-01-26T09:26:50.757Z,96830.00
2019-01-26T09:31:56.334Z,96834.00
2019-01-26T09:37:02.398Z,96825.00
2019-01-26T09:42:08.524Z,96820.00
2019-01-26T09:47:15.019Z,96817.00
2019-01-26T09:52:42.259Z,96812.00
2019-01-26T09:57:48.907Z,96807.00
2019-01-26T10:02:55.577Z,96820.00
2019-01-26T10:08:02.486Z,96813.00
2019-01-26T10:13:09.545Z,96813.00
2019-01-26T10:18:16.547Z,96807.00
2019-01-26T10:23:23.206Z,96787.00
2019-01-26T10:28:30.215Z,96786.00
2019-01-26T10:33:36.944Z,96772.00
2019-01-26T10:38:44.342Z,96776.00
2019-01-26T10:43:54.431Z,96755.00
2019-01-26T10:49:01.080Z,96765.00
2019-01-26T10:54:07.804Z,96752.00
2019-01-26T10:59:15.696Z,96746.00
2019-01-26T11:04:22.364Z,96747.00
2019-01-26T11:09:29.357Z,96748.00
2019-01-26T11:14:35.989Z,96754.00
2019-01-26T11:19:41.737Z,96748.00
2019-01-26T11:24:48.524Z,96739.00
2019-01-26T11:29:55.185Z,96741.00
2019-01-26T11:35:02.141Z,96720.00
2019-01-26T11:40:12.970Z,96725.00
2019-01-26T11:45:30.487Z,96722.00
2019-01-26T11:50:53.465Z,96726.00
2019-01-26T11:56:01.414Z,96717.00
2019-01-26T12:01:09.751Z,96714.00
2019-01-26T12:06:18.117Z,96700.00
2019-01-26T12:11:25.289Z,96704.00
2019-01-26T12:16:32.117Z,96702.00
2019-01-26T12:21:38.977Z,96691.00
2019-01-26T12:26:44.801Z,96695.00
2019-01-26T12:31:51.875Z,96697.00
2019-01-26T12:36:58.890Z,96696.00
2019-01-26T12:42:05.491Z,96693.00
2019-01-26T12:47:16.976Z,96680.00
2019-01-26T12:52:20.284Z,96695.00
2019-01-26T12:57:26.830Z,96698.00
2019-01-26T13:02:33.210Z,96699.00
2019-01-26T13:07:39.642Z,96685.00
2019-01-26T13:12:45.376Z,96693.00
2019-01-26T13:17:51.390Z,96704.00
2019-01-26T13:22:57.698Z,96681.00
2019-01-26T13:28:04.006Z,96688.00
2019-01-26T13:33:11.019Z,96689.00
2019-01-26T13:38:19.208Z,96692.00
2019-01-26T13:43:25.900Z,96693.00
2019-01-26T13:48:32.580Z,96688.00
2019-01-26T13:53:39.285Z,96702.00
2019-01-26T13:58:45.028Z,96687.00
2019-01-26T14:03:51.753Z,96699.00
2019-01-26T14:08:58.699Z,96695.00
2019-01-26T14:14:05.374Z,96701.00
2019-01-26T14:19:12.637Z,96699.00
2019-01-26T14:24:20.230Z,96686.00
2019-01-26T14:29:26.542Z,96687.00
2019-01-26T14:34:34.282Z,96689.00
2019-01-26T14:39:40.907Z,96706.00
2019-01-26T14:44:46.759Z,96701.00
2019-01-26T14:49:58.409Z,96699.00
2019-01-26T14:55:03.148Z,96701.00
2019-01-26T15:00:17.032Z,96704.00
2019-01-26T15:05:23.509Z,96701.00
2019-01-26T15:10:30.137Z,96701.00
2019-01-26T15:15:37.255Z,96691.00
2019-01-26T15:20:44.163Z,96696.00
2019-01-26T15:25:50.043Z,96704.00
2019-01-26T15:30:56.762Z,96711.00
2019-01-26T15:36:08.924Z,96709.00
2019-01-26T15:41:13.337Z,96709.00
2019-01-26T15:46:20.090Z,96720.00
2019-01-26T15:51:26.927Z,96707.00
2019-01-26T15:56:33.673Z,96710.00
2019-01-26T16:01:40.536Z,96715.00
2019-01-26T16:06:46.326Z,96716.00
2019-01-26T16:11:53.201Z,96705.00
2019-01-26T16:16:59.884Z,96709.00
2019-01-26T16:22:06.184Z,96707.00
2019-01-26T16:27:12.525Z,96709.00
2019-01-26T16:32:19.046Z,96707.00
2019-01-26T16:37:25.443Z,96695.00
2019-01-26T16:42:31.852Z,96709.00
2019-01-26T16:47:38.178Z,96701.00
2019-01-26T16:52:43.979Z,96705.00
2019-01-26T16:57:52.204Z,96704.00
2019-01-26T17:02:59.441Z,96708.00
2019-01-26T17:08:06.576Z,96717.00
2019-01-26T17:13:13.825Z,96715.00
2019-01-26T17:18:20.866Z,96702.00
2019-01-26T17:23:27.562Z,96700.00
2019-01-26T17:28:34.312Z,96706.00
2019-01-26T17:33:41.019Z,96704.00
2019-01-26T17:38:46.775Z,96713.00
2019-01-26T17:43:53.747Z,96708.00
2019-01-26T17:49:00.252Z,96702.00
2019-01-26T17:54:06.765Z,96701.00
2019-01-26T17:59:13.356Z,96695.00
2019-01-26T18:04:20.213Z,96703.00
2019-01-26T18:09:27.074Z,96687.00
2019-01-26T18:14:34.011Z,96690.00
2019-01-26T18:19:40.932Z,96693.00
2019-01-26T18:24:46.756Z,96695.00
2019-01-26T18:29:53.541Z,96679.00
2019-01-26T18:35:00.389Z,96667.00
2019-01-26T18:40:17.079Z,96685.00
2019-01-26T18:45:26.565Z,96684.00
2019-01-26T18:50:40.449Z,96679.00
2019-01-26T18:55:46.286Z,96664.00
2019-01-26T19:00:53.192Z,96661.00
2019-01-26T19:06:00.718Z,96652.00
2019-01-26T19:11:08.162Z,96654.00
2019-01-26T19:16:15.050Z,96647.00
2019-01-26T19:21:22.136Z,96645.00
2019-01-26T19:26:28.585Z,96642.00
2019-01-26T19:31:35.187Z,96635.00
2019-01-26T19:36:41.019Z,96631.00
2019-01-26T19:41:46.891Z,96631.00
2019-01-26T19:46:53.075Z,96615.00
2019-01-26T19:52:00.883Z,96628.00
2019-01-26T19:57:08.721Z,96607.00
2019-01-26T20:02:16.497Z,96615.00
2019-01-26T20:07:23.446Z,96608.00
2019-01-26T20:12:30.357Z,96611.00
2019-01-26T20:17:37.260Z,96607.00
2019-01-26T20:22:43.039Z,96605.00
2019-01-26T20:27:50.041Z,96600.00
2019-01-26T20:32:56.994Z,96597.00
2019-01-26T20:38:03.532Z,96599.00
2019-01-26T20:43:10.011Z,96604.00
2019-01-26T20:48:16.373Z,96591.00
2019-01-26T20:53:22.935Z,96585.00
2019-01-26T20:58:29.276Z,96579.00
2019-01-26T21:03:36.998Z,96562.00
2019-01-26T21:08:42.883Z,96572.00
2019-01-26T21:13:50.852Z,96566.00
2019-01-26T21:18:57.558Z,96560.00
2019-01-26T21:24:04.231Z,96553.00
2019-01-26T21:29:11.068Z,96571.00
2019-01-26T21:34:18.327Z,96560.00
2019-01-26T21:39:25.175Z,96555.00
2019-01-26T21:44:31.804Z,96551.00
2019-01-26T21:49:40.198Z,96532.00
2019-01-26T21:54:45.816Z,96528.00
2019-01-26T21:59:52.344Z,96525.00
2019-01-26T22:04:58.817Z,96530.00
2019-01-26T22:10:12.106Z,96518.00
2019-01-26T22:15:23.779Z,96515.00
2019-01-26T22:20:30.146Z,96505.00
2019-01-26T22:25:36.668Z,96493.00
2019-01-26T22:30:42.273Z,96485.00
2019-01-26T22:35:47.803Z,96475.00
2019-01-26T22:40:54.338Z,96486.00
2019-01-26T22:46:00.675Z,96477.00
2019-01-26T22:51:07.254Z,96489.00
2019-01-26T22:56:13.790Z,96476.00
2019-01-26T23:01:20.288Z,96466.00
2019-01-26T23:06:55.279Z,96462.00
2019-01-26T23:12:14.324Z,96448.00
2019-01-26T23:18:08.528Z,96437.00
2019-01-26T23:23:27.486Z,96424.00
2019-01-26T23:28:41.224Z,96413.00
2019-01-26T23:33:47.149Z,96407.00
2019-01-26T23:38:53.580Z,96392.00
2019-01-26T23:44:00.204Z,96389.00
2019-01-26T23:49:06.907Z,96379.00
2019-01-26T23:54:13.534Z,96366.00
2019-01-26T23:59:20.050Z,96359.00
